Time;durP1;ratioP1;P1;durP2;ratioP2;P2;SDS_P1;SDS_P2;PMS_P1;PMS_P2;Temp;Humidity;BMP_temperature;BMP_pressure;BME280_temperature;BME280_humidity;BME280_pressure;Samples;Min_cycle;Max_cycle;Signal;HPM_P1;HPM_P2
2024/01/13 00:02:03;;;;;;;14.23;5.33;;;;;;;;;;5068362;28;20714;-74
2024/01/13 00:04:29;;;;;;;14.87;5.70;;;;;;;;;;5067883;28;20783;-75
2024/01/13 00:06:55;;;;;;;20.50;6.13;;;;;;;;;;5068403;28;20182;-74
2024/01/13 00:09:21;;;;;;;13.50;6.00;;;;;;;;;;5067642;28;20199;-74
2024/01/13 00:11:47;;;;;;;12.60;4.63;;;;;;;;;;5065395;28;20206;-75
2024/01/13 00:14:13;;;;;;;12.60;4.70;;;;;;;;;;5067595;28;20206;-75
2024/01/13 00:16:38;;;;;;;14.43;5.20;;;;;;;;;;5066557;28;20247;-76
2024/01/13 00:19:05;;;;;;;13.23;5.07;;;;;;;;;;5061017;28;20202;-73
2024/01/13 00:21:31;;;;;;;14.37;4.77;;;;;;;;;;5067577;28;20207;-75
2024/01/13 00:23:57;;;;;;;15.23;5.73;;;;;;;;;;5068340;28;20209;-74
2024/01/13 00:26:23;;;;;;;12.47;4.97;;;;;;;;;;5068233;28;20266;-73
2024/01/13 00:28:49;;;;;;;15.20;5.57;;;;;;;;;;5065643;28;20831;-74
2024/01/13 00:31:15;;;;;;;12.53;5.47;;;;;;;;;;5063575;28;20276;-75
2024/01/13 00:33:43;;;;;;;11.50;4.90;;;;;;;;;;5068374;28;20179;-76
2024/01/13 00:36:10;;;;;;;11.40;4.80;;;;;;;;;;5083310;28;20205;-74
2024/01/13 00:38:36;;;;;;;19.73;5.50;;;;;;;;;;5061104;28;20215;-75
2024/01/13 00:41:03;;;;;;;12.37;4.93;;;;;;;;;;5069564;28;20223;-75
2024/01/13 00:43:29;;;;;;;13.10;5.27;;;;;;;;;;5068204;28;20202;-74
2024/01/13 00:45:55;;;;;;;11.23;4.97;;;;;;;;;;5065991;28;20211;-74
2024/01/13 00:48:21;;;;;;;13.90;4.37;;;;;;;;;;5069084;28;20204;-74
2024/01/13 00:50:47;;;;;;;15.13;5.10;;;;;;;;;;5067582;28;20212;-74
2024/01/13 00:53:13;;;;;;;13.43;4.70;;;;;;;;;;5065595;28;20234;-75
2024/01/13 00:55:39;;;;;;;10.50;4.30;;;;;;;;;;5082797;28;20235;-73
2024/01/13 00:58:05;;;;;;;13.03;4.10;;;;;;;;;;5067646;28;20632;-74
2024/01/13 01:00:31;;;;;;;10.50;4.80;;;;;;;;;;5066835;28;20198;-73
2024/01/13 01:02:57;;;;;;;12.53;4.17;;;;;;;;;;5066244;28;20212;-75
2024/01/13 01:05:23;;;;;;;9.67;3.87;;;;;;;;;;5067678;28;20292;-75
2024/01/13 01:07:50;;;;;;;13.33;4.50;;;;;;;;;;5065210;28;20290;-76
2024/01/13 01:10:16;;;;;;;13.07;4.27;;;;;;;;;;5067104;28;20333;-75
2024/01/13 01:12:42;;;;;;;10.83;4.00;;;;;;;;;;5067322;28;20517;-74
2024/01/13 01:15:08;;;;;;;14.70;3.93;;;;;;;;;;5082540;28;20214;-75
2024/01/13 01:17:34;;;;;;;11.90;4.30;;;;;;;;;;5067460;28;20598;-74
2024/01/13 01:20:00;;;;;;;6.43;3.20;;;;;;;;;;5069720;28;20256;-75
2024/01/13 01:22:26;;;;;;;10.33;3.63;;;;;;;;;;5070770;28;20293;-75
2024/01/13 01:24:52;;;;;;;9.07;3.43;;;;;;;;;;5069912;28;20213;-76
2024/01/13 01:27:18;;;;;;;10.40;3.03;;;;;;;;;;5069745;28;20965;-76
2024/01/13 01:29:44;;;;;;;6.83;2.93;;;;;;;;;;5070698;28;20202;-76
2024/01/13 01:32:10;;;;;;;9.63;3.93;;;;;;;;;;5071108;28;20225;-74
2024/01/13 01:34:36;;;;;;;10.50;4.00;;;;;;;;;;5070865;28;20213;-73
2024/01/13 01:37:02;;;;;;;13.67;3.93;;;;;;;;;;5070863;28;20180;-72
2024/01/13 01:39:28;;;;;;;7.47;3.57;;;;;;;;;;5066388;28;20210;-75
2024/01/13 01:41:54;;;;;;;6.03;2.70;;;;;;;;;;5068026;28;20267;-74
2024/01/13 01:44:20;;;;;;;13.07;3.30;;;;;;;;;;5071773;28;20210;-74
2024/01/13 01:46:47;;;;;;;9.13;3.33;;;;;;;;;;5071106;28;20205;-74
2024/01/13 01:49:13;;;;;;;7.43;2.80;;;;;;;;;;5070882;28;20212;-74
2024/01/13 01:51:40;;;;;;;5.87;2.97;;;;;;;;;;5068536;28;20769;-74
2024/01/13 01:54:06;;;;;;;7.90;2.97;;;;;;;;;;5068126;28;20765;-73
2024/01/13 01:56:37;;;;;;;6.97;2.37;;;;;;;;;;5067348;28;20880;-78
2024/01/13 01:59:03;;;;;;;16.87;3.43;;;;;;;;;;5068442;28;20734;-73
2024/01/13 02:01:32;;;;;;;6.07;2.47;;;;;;;;;;5070969;28;20207;-74
2024/01/13 02:03:59;;;;;;;12.07;3.00;;;;;;;;;;5071398;28;20179;-74
2024/01/13 02:06:25;;;;;;;4.67;2.23;;;;;;;;;;5069773;28;20204;-76
2024/01/13 02:08:51;;;;;;;5.50;2.63;;;;;;;;;;5069277;28;20226;-74
2024/01/13 02:11:19;;;;;;;7.23;2.70;;;;;;;;;;5066617;28;20593;-74
2024/01/13 02:13:46;;;;;;;9.93;2.93;;;;;;;;;;5067002;28;20203;-74
2024/01/13 02:16:12;;;;;;;8.03;2.77;;;;;;;;;;5068519;28;20200;-75
2024/01/13 02:18:38;;;;;;;8.20;2.60;;;;;;;;;;5085472;28;20702;-75
2024/01/13 02:21:04;;;;;;;7.50;3.00;;;;;;;;;;5072078;28;20211;-74
2024/01/13 02:23:30;;;;;;;8.93;3.40;;;;;;;;;;5071835;28;20206;-74
2024/01/13 02:25:56;;;;;;;6.97;2.40;;;;;;;;;;5072173;28;20199;-74
2024/01/13 02:28:22;;;;;;;6.90;2.27;;;;;;;;;;5069585;28;20179;-74
2024/01/13 02:30:48;;;;;;;7.07;3.07;;;;;;;;;;5070114;28;20282;-74
2024/01/13 02:33:14;;;;;;;3.43;2.00;;;;;;;;;;5074485;28;20700;-73
2024/01/13 02:35:41;;;;;;;5.53;2.53;;;;;;;;;;5071733;28;20216;-74
2024/01/13 02:38:07;;;;;;;9.13;3.17;;;;;;;;;;5071502;28;20275;-73
2024/01/13 02:40:34;;;;;;;5.63;2.17;;;;;;;;;;5073915;28;20202;-73
2024/01/13 02:43:00;;;;;;;9.23;3.50;;;;;;;;;;5085756;28;20207;-75
2024/01/13 02:45:26;;;;;;;6.80;2.73;;;;;;;;;;5068469;28;20205;-76
2024/01/13 02:48:01;;;;;;;8.60;2.80;;;;;;;;;;5082401;28;20213;-76
2024/01/13 02:50:27;;;;;;;8.73;2.20;;;;;;;;;;5090939;28;20202;-74
2024/01/13 02:52:52;;;;;;;6.37;2.53;;;;;;;;;;5080452;28;20304;-73
2024/01/13 02:55:19;;;;;;;8.00;3.23;;;;;;;;;;5068919;28;20514;-74
2024/01/13 02:57:44;;;;;;;6.00;2.43;;;;;;;;;;5070898;28;20174;-74
2024/01/13 03:00:13;;;;;;;5.57;3.10;;;;;;;;;;5070626;28;20279;-74
2024/01/13 03:02:39;;;;;;;11.33;3.27;;;;;;;;;;5085576;28;20267;-74
2024/01/13 03:05:08;;;;;;;6.60;2.73;;;;;;;;;;5064941;28;20229;-73
2024/01/13 03:07:34;;;;;;;3.33;2.10;;;;;;;;;;5085406;28;20310;-74
2024/01/13 03:10:00;;;;;;;5.97;2.07;;;;;;;;;;5068012;28;20628;-74
2024/01/13 03:12:26;;;;;;;3.93;2.43;;;;;;;;;;5067279;28;20268;-75
2024/01/13 03:14:52;;;;;;;7.33;3.07;;;;;;;;;;5060918;28;20199;-75
2024/01/13 03:17:18;;;;;;;4.83;2.40;;;;;;;;;;5069153;28;20218;-76
2024/01/13 03:19:44;;;;;;;4.47;1.93;;;;;;;;;;5066831;28;20319;-75
2024/01/13 03:22:10;;;;;;;11.00;2.60;;;;;;;;;;5067412;28;20192;-75
2024/01/13 03:24:36;;;;;;;4.90;2.33;;;;;;;;;;5066640;28;20217;-78
2024/01/13 03:27:01;;;;;;;6.13;2.57;;;;;;;;;;5064282;28;20201;-76
2024/01/13 03:29:27;;;;;;;7.60;2.37;;;;;;;;;;5059335;28;20198;-76
2024/01/13 03:31:54;;;;;;;5.40;2.80;;;;;;;;;;5064886;28;20871;-75
2024/01/13 03:34:20;;;;;;;5.60;3.23;;;;;;;;;;5066971;28;20202;-74
2024/01/13 03:36:46;;;;;;;7.27;3.40;;;;;;;;;;5062679;28;20179;-75
2024/01/13 03:39:11;;;;;;;5.23;2.97;;;;;;;;;;5065010;28;20214;-75
2024/01/13 03:41:38;;;;;;;5.47;2.90;;;;;;;;;;5061287;28;20230;-75
2024/01/13 03:44:04;;;;;;;5.90;3.07;;;;;;;;;;5065786;28;20817;-75
2024/01/13 03:46:30;;;;;;;10.13;3.33;;;;;;;;;;5066579;28;20190;-76
2024/01/13 03:48:56;;;;;;;8.97;3.60;;;;;;;;;;5059047;28;20187;-75
2024/01/13 03:51:22;;;;;;;4.57;2.60;;;;;;;;;;5061663;28;20230;-75
2024/01/13 03:53:48;;;;;;;5.83;3.37;;;;;;;;;;5065976;28;20562;-74
2024/01/13 03:56:14;;;;;;;6.13;3.23;;;;;;;;;;5062183;28;20203;-76
2024/01/13 03:58:40;;;;;;;7.20;3.17;;;;;;;;;;5066377;28;20220;-76
2024/01/13 04:01:06;;;;;;;6.47;2.90;;;;;;;;;;5065964;28;20269;-75
2024/01/13 04:03:32;;;;;;;6.50;3.00;;;;;;;;;;5062019;28;20237;-75
2024/01/13 04:05:58;;;;;;;5.97;3.13;;;;;;;;;;5064412;28;20217;-75
2024/01/13 04:08:24;;;;;;;4.63;2.93;;;;;;;;;;5067414;28;20199;-75
2024/01/13 04:10:50;;;;;;;4.70;2.60;;;;;;;;;;5065404;28;20402;-75
2024/01/13 04:13:17;;;;;;;6.50;3.03;;;;;;;;;;5066952;28;20243;-76
2024/01/13 04:15:43;;;;;;;5.90;3.30;;;;;;;;;;5068648;28;20187;-75
2024/01/13 04:18:09;;;;;;;6.17;3.27;;;;;;;;;;5063882;28;20210;-76
2024/01/13 04:20:35;;;;;;;5.70;2.90;;;;;;;;;;5065991;28;20201;-74
2024/01/13 04:23:01;;;;;;;5.27;2.90;;;;;;;;;;5061671;28;20221;-75
2024/01/13 04:25:27;;;;;;;6.23;2.77;;;;;;;;;;5064223;28;20562;-75
2024/01/13 04:27:54;;;;;;;6.33;3.20;;;;;;;;;;5064030;28;20202;-77
2024/01/13 04:30:20;;;;;;;5.00;2.67;;;;;;;;;;5065888;28;20218;-77
2024/01/13 04:32:46;;;;;;;5.00;2.67;;;;;;;;;;5062306;28;20214;-75
2024/01/13 04:35:12;;;;;;;6.03;3.23;;;;;;;;;;5064325;28;20208;-73
2024/01/13 04:37:39;;;;;;;4.80;2.80;;;;;;;;;;5064829;28;20202;-75
2024/01/13 04:40:06;;;;;;;5.50;3.17;;;;;;;;;;5063487;28;20201;-74
2024/01/13 04:42:33;;;;;;;7.17;2.70;;;;;;;;;;5067424;28;20267;-74
2024/01/13 04:44:59;;;;;;;5.37;2.33;;;;;;;;;;5064233;28;20207;-74
2024/01/13 04:47:26;;;;;;;4.30;3.13;;;;;;;;;;5082695;28;20196;-73
2024/01/13 04:49:52;;;;;;;6.13;2.60;;;;;;;;;;5062042;28;20258;-73
2024/01/13 04:52:18;;;;;;;5.80;3.10;;;;;;;;;;5066909;28;20204;-76
2024/01/13 04:54:44;;;;;;;4.60;3.00;;;;;;;;;;5064779;28;20170;-75
2024/01/13 04:57:10;;;;;;;5.67;3.23;;;;;;;;;;5062496;28;20640;-75
2024/01/13 04:59:36;;;;;;;7.10;3.15;;;;;;;;;;5063851;28;20422;-75
2024/01/13 05:02:03;;;;;;;6.60;3.27;;;;;;;;;;5065115;28;20297;-73
2024/01/13 05:04:29;;;;;;;6.10;2.77;;;;;;;;;;5062241;28;20182;-74
2024/01/13 05:06:55;;;;;;;4.33;2.23;;;;;;;;;;5065368;28;20201;-74
2024/01/13 05:09:20;;;;;;;4.30;2.63;;;;;;;;;;5059795;28;20227;-74
2024/01/13 05:11:46;;;;;;;3.57;2.37;;;;;;;;;;5065174;28;20693;-77
2024/01/13 05:14:12;;;;;;;6.77;3.17;;;;;;;;;;5066867;28;20207;-74
2024/01/13 05:16:38;;;;;;;5.47;2.77;;;;;;;;;;5079816;28;20215;-74
2024/01/13 05:19:04;;;;;;;4.37;2.33;;;;;;;;;;5065020;28;20262;-74
2024/01/13 05:21:31;;;;;;;5.77;2.63;;;;;;;;;;5064781;28;20197;-73
2024/01/13 05:23:57;;;;;;;5.10;2.87;;;;;;;;;;5068369;28;20657;-74
2024/01/13 05:26:23;;;;;;;3.83;2.70;;;;;;;;;;5071612;28;20204;-71
2024/01/13 05:28:48;;;;;;;6.70;2.57;;;;;;;;;;5063238;28;20213;-74
2024/01/13 05:31:16;;;;;;;7.00;2.70;;;;;;;;;;5066655;28;20669;-77
2024/01/13 05:33:42;;;;;;;4.37;2.43;;;;;;;;;;5065695;28;20179;-75
2024/01/13 05:36:08;;;;;;;4.50;2.63;;;;;;;;;;5064109;28;20203;-78
2024/01/13 05:38:34;;;;;;;5.43;2.80;;;;;;;;;;5068363;28;20214;-75
2024/01/13 05:41:00;;;;;;;5.87;2.90;;;;;;;;;;5062213;28;20218;-77
2024/01/13 05:43:26;;;;;;;5.00;2.90;;;;;;;;;;5065091;28;20184;-72
2024/01/13 05:45:52;;;;;;;6.97;3.23;;;;;;;;;;5064643;28;20573;-74
2024/01/13 05:48:18;;;;;;;5.10;3.10;;;;;;;;;;5060401;28;20198;-75
2024/01/13 05:50:44;;;;;;;4.57;2.33;;;;;;;;;;5064526;28;20207;-75
2024/01/13 05:53:10;;;;;;;5.50;3.10;;;;;;;;;;5061016;28;20208;-74
2024/01/13 05:55:36;;;;;;;5.57;3.10;;;;;;;;;;5060299;28;20207;-75
2024/01/13 05:58:02;;;;;;;6.23;3.30;;;;;;;;;;5065296;28;20241;-73
2024/01/13 06:00:28;;;;;;;8.60;3.47;;;;;;;;;;5065337;28;20742;-73
2024/01/13 06:02:56;;;;;;;5.40;3.20;;;;;;;;;;5065358;28;20227;-73
2024/01/13 06:05:22;;;;;;;9.17;3.27;;;;;;;;;;5066630;28;20220;-73
2024/01/13 06:07:48;;;;;;;5.83;3.40;;;;;;;;;;5070026;28;20209;-73
2024/01/13 06:10:17;;;;;;;6.13;3.73;;;;;;;;;;5069537;28;20561;-73
2024/01/13 06:12:45;;;;;;;8.23;3.77;;;;;;;;;;5069739;28;20176;-73
2024/01/13 06:15:11;;;;;;;7.87;3.73;;;;;;;;;;5067137;28;20291;-73
2024/01/13 06:17:37;;;;;;;6.97;3.90;;;;;;;;;;5068775;28;20229;-74
2024/01/13 06:20:03;;;;;;;6.80;3.60;;;;;;;;;;5068185;28;20232;-73
2024/01/13 06:22:30;;;;;;;8.80;3.87;;;;;;;;;;5048846;28;20251;-75
2024/01/13 06:24:56;;;;;;;6.67;3.43;;;;;;;;;;5076574;28;20185;-74
2024/01/13 06:27:22;;;;;;;7.23;4.00;;;;;;;;;;5078707;28;20755;-75
2024/01/13 06:29:48;;;;;;;6.03;3.77;;;;;;;;;;5063992;28;20215;-73
2024/01/13 06:32:14;;;;;;;6.63;3.27;;;;;;;;;;5080177;28;20210;-74
2024/01/13 06:34:40;;;;;;;8.80;4.40;;;;;;;;;;5065256;28;20233;-74
2024/01/13 06:37:06;;;;;;;5.87;3.80;;;;;;;;;;5085993;28;20179;-75
2024/01/13 06:39:32;;;;;;;8.87;3.90;;;;;;;;;;5084925;28;20210;-73
2024/01/13 06:41:58;;;;;;;6.90;4.10;;;;;;;;;;5088855;28;20271;-74
2024/01/13 06:44:24;;;;;;;6.87;4.07;;;;;;;;;;5056666;28;20769;-73
2024/01/13 06:46:50;;;;;;;5.00;2.90;;;;;;;;;;5089799;28;20223;-74
2024/01/13 06:49:16;;;;;;;6.27;3.23;;;;;;;;;;5079973;28;20208;-74
2024/01/13 06:51:42;;;;;;;4.07;2.60;;;;;;;;;;5083156;28;20194;-73
2024/01/13 06:54:08;;;;;;;7.43;3.33;;;;;;;;;;5064257;28;20219;-73
2024/01/13 06:56:36;;;;;;;5.07;2.60;;;;;;;;;;5088884;28;20203;-73
2024/01/13 06:59:02;;;;;;;3.90;2.43;;;;;;;;;;5083755;28;20249;-72
2024/01/13 07:01:28;;;;;;;5.10;3.13;;;;;;;;;;5084912;28;20212;-73
2024/01/13 07:03:54;;;;;;;4.73;2.93;;;;;;;;;;5076130;28;20216;-72
2024/01/13 07:06:20;;;;;;;5.27;2.70;;;;;;;;;;5075743;28;20210;-74
2024/01/13 07:08:46;;;;;;;7.03;2.73;;;;;;;;;;5082607;28;20797;-73
2024/01/13 07:11:13;;;;;;;5.57;2.90;;;;;;;;;;5078876;28;20204;-75
2024/01/13 07:13:41;;;;;;;6.60;2.50;;;;;;;;;;5084359;28;20203;-74
2024/01/13 07:16:07;;;;;;;3.50;2.40;;;;;;;;;;5082508;28;20591;-75
2024/01/13 07:18:33;;;;;;;5.60;2.57;;;;;;;;;;5080372;28;20224;-74
2024/01/13 07:20:59;;;;;;;5.60;2.60;;;;;;;;;;5071513;28;20216;-73
2024/01/13 07:23:25;;;;;;;3.63;2.40;;;;;;;;;;5078614;28;20722;-75
2024/01/13 07:25:51;;;;;;;3.50;2.50;;;;;;;;;;5074703;28;20412;-73
2024/01/13 07:28:17;;;;;;;4.30;2.67;;;;;;;;;;5057074;28;20463;-76
2024/01/13 07:30:43;;;;;;;4.30;2.47;;;;;;;;;;5056772;28;20225;-73
2024/01/13 07:33:09;;;;;;;3.57;2.30;;;;;;;;;;5072623;28;20236;-75
2024/01/13 07:35:36;;;;;;;4.43;2.17;;;;;;;;;;5057411;28;20206;-74
2024/01/13 07:38:02;;;;;;;3.90;2.10;;;;;;;;;;5074339;28;21107;-74
2024/01/13 07:40:28;;;;;;;4.63;2.87;;;;;;;;;;5073518;28;20302;-73
2024/01/13 07:42:54;;;;;;;3.57;2.57;;;;;;;;;;5075299;28;20652;-74
2024/01/13 07:45:20;;;;;;;3.03;1.80;;;;;;;;;;5081500;28;20704;-74
2024/01/13 07:47:46;;;;;;;3.27;2.20;;;;;;;;;;5068743;28;20299;-75
2024/01/13 07:50:12;;;;;;;3.77;2.40;;;;;;;;;;5065636;28;20229;-73
2024/01/13 07:52:38;;;;;;;3.80;2.37;;;;;;;;;;5075555;28;20697;-74
2024/01/13 07:55:04;;;;;;;3.83;2.37;;;;;;;;;;5073885;28;20174;-75
2024/01/13 07:57:31;;;;;;;3.03;1.73;;;;;;;;;;5074114;28;20681;-75
2024/01/13 07:59:57;;;;;;;3.87;2.00;;;;;;;;;;5054313;28;20229;-75
2024/01/13 08:02:23;;;;;;;5.57;2.67;;;;;;;;;;5074339;28;20256;-75
2024/01/13 08:04:49;;;;;;;3.27;1.93;;;;;;;;;;5070865;28;20734;-75
2024/01/13 08:07:15;;;;;;;3.23;2.30;;;;;;;;;;5077429;28;21104;-75
2024/01/13 08:09:41;;;;;;;2.90;1.73;;;;;;;;;;5052343;28;20681;-76
2024/01/13 08:12:07;;;;;;;2.20;1.30;;;;;;;;;;5068168;28;20211;-76
2024/01/13 08:14:33;;;;;;;2.07;1.33;;;;;;;;;;5053983;28;20208;-74
2024/01/13 08:16:59;;;;;;;3.87;1.93;;;;;;;;;;5073716;28;20709;-75
2024/01/13 08:19:25;;;;;;;2.20;1.37;;;;;;;;;;5070781;28;20191;-76
2024/01/13 08:21:51;;;;;;;2.07;1.53;;;;;;;;;;5075465;28;20195;-75
2024/01/13 08:24:17;;;;;;;1.83;1.40;;;;;;;;;;5059743;28;20201;-75
2024/01/13 08:26:43;;;;;;;1.87;1.37;;;;;;;;;;5072495;28;20339;-76
2024/01/13 08:29:09;;;;;;;3.17;1.70;;;;;;;;;;5066587;28;20284;-77
2024/01/13 08:31:35;;;;;;;3.30;1.70;;;;;;;;;;5080528;28;20585;-76
2024/01/13 08:34:01;;;;;;;2.07;1.70;;;;;;;;;;5073111;28;20173;-75
2024/01/13 08:36:27;;;;;;;4.50;1.70;;;;;;;;;;5073697;28;20218;-74
2024/01/13 08:38:53;;;;;;;3.47;2.13;;;;;;;;;;5073520;28;20219;-74
2024/01/13 08:41:19;;;;;;;4.00;1.83;;;;;;;;;;5074847;28;20218;-74
2024/01/13 08:43:45;;;;;;;2.83;1.37;;;;;;;;;;5072256;28;20207;-75
2024/01/13 08:46:13;;;;;;;3.03;1.60;;;;;;;;;;5080124;28;21587;-73
2024/01/13 08:48:39;;;;;;;2.47;1.70;;;;;;;;;;5047377;28;20210;-73
2024/01/13 08:51:05;;;;;;;3.33;1.83;;;;;;;;;;5069245;28;20216;-74
2024/01/13 08:53:33;;;;;;;1.80;1.60;;;;;;;;;;5071051;28;20217;-74
2024/01/13 08:55:59;;;;;;;3.03;1.57;;;;;;;;;;5073013;28;20201;-76
2024/01/13 08:58:25;;;;;;;3.50;1.90;;;;;;;;;;5074864;28;20260;-76
2024/01/13 09:00:54;;;;;;;2.90;1.57;;;;;;;;;;5049585;28;20676;-74
2024/01/13 09:03:21;;;;;;;2.23;1.50;;;;;;;;;;5073685;28;20197;-74
2024/01/13 09:05:47;;;;;;;2.27;1.60;;;;;;;;;;5071359;28;20569;-74
2024/01/13 09:08:13;;;;;;;2.73;1.70;;;;;;;;;;5068353;28;20199;-74
2024/01/13 09:10:39;;;;;;;2.73;1.50;;;;;;;;;;5076613;28;20714;-73
2024/01/13 09:13:05;;;;;;;2.27;1.57;;;;;;;;;;5076247;28;20170;-74
2024/01/13 09:15:31;;;;;;;4.57;1.83;;;;;;;;;;5070450;28;20205;-75
2024/01/13 09:17:57;;;;;;;3.53;1.73;;;;;;;;;;5070141;28;20296;-74
2024/01/13 09:20:26;;;;;;;2.63;1.47;;;;;;;;;;5054611;28;20269;-74
2024/01/13 09:22:52;;;;;;;2.83;1.63;;;;;;;;;;5064435;28;20222;-75
2024/01/13 09:25:18;;;;;;;2.30;1.50;;;;;;;;;;5071342;28;20232;-75
2024/01/13 09:27:44;;;;;;;2.93;1.60;;;;;;;;;;5072286;28;20188;-75
2024/01/13 09:30:11;;;;;;;2.77;1.77;;;;;;;;;;5056656;28;20202;-75
2024/01/13 09:32:37;;;;;;;3.07;1.60;;;;;;;;;;5077772;28;20300;-73
2024/01/13 09:35:03;;;;;;;3.50;1.63;;;;;;;;;;5070449;28;20248;-75
2024/01/13 09:37:29;;;;;;;2.77;1.47;;;;;;;;;;5071415;28;20179;-75
2024/01/13 09:39:56;;;;;;;3.43;1.70;;;;;;;;;;5075179;28;20219;-76
2024/01/13 09:42:30;;;;;;;2.63;1.67;;;;;;;;;;5076325;28;20985;-72
2024/01/13 09:44:56;;;;;;;2.43;2.00;;;;;;;;;;5083963;28;20691;-75
2024/01/13 09:47:22;;;;;;;3.10;1.90;;;;;;;;;;5071340;28;20209;-74
2024/01/13 09:49:51;;;;;;;4.20;1.90;;;;;;;;;;5079976;28;20213;-77
2024/01/13 09:52:17;;;;;;;23.27;12.87;;;;;;;;;;5078839;28;20189;-75
2024/01/13 09:54:47;;;;;;;7.33;3.70;;;;;;;;;;5072333;28;20182;-75
2024/01/13 09:57:13;;;;;;;2.90;1.97;;;;;;;;;;5057850;28;20202;-73
2024/01/13 09:59:41;;;;;;;2.57;1.90;;;;;;;;;;5076807;28;20210;-74
2024/01/13 10:02:11;;;;;;;2.87;1.53;;;;;;;;;;5077954;28;20216;-76
2024/01/13 10:04:37;;;;;;;3.23;1.73;;;;;;;;;;5056456;28;20214;-75
2024/01/13 10:07:03;;;;;;;3.47;1.83;;;;;;;;;;5074755;28;20189;-76
2024/01/13 10:09:29;;;;;;;2.53;1.57;;;;;;;;;;5075928;28;20707;-75
2024/01/13 10:11:56;;;;;;;3.37;1.73;;;;;;;;;;5080702;28;20243;-75
2024/01/13 10:14:23;;;;;;;2.83;1.50;;;;;;;;;;5056777;28;20207;-74
2024/01/13 10:16:49;;;;;;;1.63;1.20;;;;;;;;;;5071800;28;20222;-77
2024/01/13 10:19:15;;;;;;;2.77;1.57;;;;;;;;;;5073373;28;20201;-75
2024/01/13 10:21:42;;;;;;;2.40;1.77;;;;;;;;;;5077665;28;20273;-75
2024/01/13 10:24:08;;;;;;;2.10;1.30;;;;;;;;;;5077095;28;20203;-75
2024/01/13 10:26:35;;;;;;;3.43;1.73;;;;;;;;;;5076815;28;20212;-76
2024/01/13 10:29:01;;;;;;;1.43;1.33;;;;;;;;;;5056975;28;20756;-75
2024/01/13 10:31:27;;;;;;;2.53;1.40;;;;;;;;;;5073905;28;20201;-76
2024/01/13 10:33:53;;;;;;;2.13;1.40;;;;;;;;;;5056405;28;20182;-76
2024/01/13 10:36:24;;;;;;;2.97;1.97;;;;;;;;;;5074429;28;20209;-76
2024/01/13 10:38:51;;;;;;;1.57;1.37;;;;;;;;;;5072078;28;20788;-75
2024/01/13 10:41:17;;;;;;;1.90;1.27;;;;;;;;;;5056655;28;20291;-76
2024/01/13 10:43:43;;;;;;;3.00;1.40;;;;;;;;;;5076465;28;20202;-76
2024/01/13 10:46:13;;;;;;;2.17;1.20;;;;;;;;;;5072631;28;20557;-77
2024/01/13 10:48:47;;;;;;;2.17;1.53;;;;;;;;;;5057666;28;20227;-75
2024/01/13 10:51:23;;;;;;;3.20;1.30;;;;;;;;;;5076633;28;20218;-76
2024/01/13 10:53:50;;;;;;;1.93;1.33;;;;;;;;;;5073160;28;20768;-75
2024/01/13 10:56:17;;;;;;;1.43;1.33;;;;;;;;;;5071289;28;20224;-76
2024/01/13 10:58:49;;;;;;;2.00;1.30;;;;;;;;;;5075765;28;20227;-76
2024/01/13 11:01:15;;;;;;;1.70;1.10;;;;;;;;;;5065104;28;20674;-75
2024/01/13 11:03:41;;;;;;;4.07;1.47;;;;;;;;;;5074335;28;20174;-76
2024/01/13 11:06:07;;;;;;;3.67;1.43;;;;;;;;;;5070881;28;20203;-78
2024/01/13 11:08:35;;;;;;;2.57;1.70;;;;;;;;;;5078662;28;20664;-77
2024/01/13 11:11:01;;;;;;;2.23;1.10;;;;;;;;;;5055474;28;20211;-77
2024/01/13 11:13:29;;;;;;;2.83;1.30;;;;;;;;;;5073908;28;20179;-75
2024/01/13 11:16:04;;;;;;;1.47;1.20;;;;;;;;;;5073423;28;20225;-76
2024/01/13 11:18:36;;;;;;;1.33;1.23;;;;;;;;;;5074246;28;20265;-75
2024/01/13 11:21:05;;;;;;;2.03;1.40;;;;;;;;;;5074282;28;20206;-74
2024/01/13 11:23:45;;;;;;;3.30;1.33;;;;;;;;;;5066134;28;20286;-75
2024/01/13 11:26:11;;;;;;;2.30;1.40;;;;;;;;;;5066455;28;20713;-75
2024/01/13 11:28:51;;;;;;;1.43;1.20;;;;;;;;;;5067905;28;20206;-75
2024/01/13 11:31:35;;;;;;;2.60;1.50;;;;;;;;;;5066994;28;20812;-75
2024/01/13 11:34:02;;;;;;;3.30;1.40;;;;;;;;;;5059265;28;20671;-76
2024/01/13 11:36:33;;;;;;;1.57;1.20;;;;;;;;;;5065288;28;20204;-76
2024/01/13 11:39:00;;;;;;;1.83;1.03;;;;;;;;;;5068080;28;20688;-75
2024/01/13 11:41:41;;;;;;;1.80;1.23;;;;;;;;;;5066300;28;20687;-75
2024/01/13 11:44:08;;;;;;;2.40;1.20;;;;;;;;;;5066728;28;20222;-76
2024/01/13 11:46:38;;;;;;;1.43;1.33;;;;;;;;;;5066920;28;20237;-75
2024/01/13 11:49:07;;;;;;;2.67;1.50;;;;;;;;;;5064154;28;20792;-76
2024/01/13 11:51:52;;;;;;;1.53;1.20;;;;;;;;;;5061538;28;20202;-75
2024/01/13 11:54:18;;;;;;;3.53;1.23;;;;;;;;;;5062262;28;20210;-75
2024/01/13 11:56:45;;;;;;;2.03;1.30;;;;;;;;;;5068488;28;20204;-75
2024/01/13 11:59:11;;;;;;;3.17;1.50;;;;;;;;;;5067679;28;20677;-78
2024/01/13 12:01:37;;;;;;;1.37;1.23;;;;;;;;;;5064741;28;20210;-76
2024/01/13 12:04:03;;;;;;;1.40;1.17;;;;;;;;;;5082887;28;20163;-75
2024/01/13 12:06:29;;;;;;;1.53;1.33;;;;;;;;;;5062861;28;20222;-76
2024/01/13 12:08:56;;;;;;;1.43;1.10;;;;;;;;;;5082789;28;20223;-75
2024/01/13 12:11:22;;;;;;;1.50;1.27;;;;;;;;;;5067166;28;20247;-74
2024/01/13 12:13:48;;;;;;;3.00;0.97;;;;;;;;;;5064620;28;20211;-75
2024/01/13 12:16:14;;;;;;;1.30;0.90;;;;;;;;;;5058096;28;20202;-75
2024/01/13 12:18:45;;;;;;;1.30;1.20;;;;;;;;;;5065523;28;20189;-76
2024/01/13 12:21:13;;;;;;;1.37;1.00;;;;;;;;;;5066084;28;20214;-74
2024/01/13 12:23:39;;;;;;;1.03;0.90;;;;;;;;;;5082636;28;20199;-74
2024/01/13 12:26:05;;;;;;;2.27;1.13;;;;;;;;;;5060694;28;20201;-74
2024/01/13 12:28:32;;;;;;;2.50;1.20;;;;;;;;;;5067643;28;20524;-74
2024/01/13 12:31:02;;;;;;;0.80;0.80;;;;;;;;;;5059717;28;20273;-74
2024/01/13 12:33:28;;;;;;;3.50;1.20;;;;;;;;;;5068006;28;20673;-75
2024/01/13 12:36:00;;;;;;;2.13;1.17;;;;;;;;;;5067933;28;20720;-74
2024/01/13 12:38:27;;;;;;;1.80;1.23;;;;;;;;;;5063694;28;20209;-75
2024/01/13 12:40:54;;;;;;;2.87;1.50;;;;;;;;;;5078806;28;20222;-75
2024/01/13 12:43:20;;;;;;;1.87;1.30;;;;;;;;;;5067103;28;20166;-75
2024/01/13 12:45:49;;;;;;;0.87;0.87;;;;;;;;;;5068588;28;20786;-75
2024/01/13 12:48:16;;;;;;;1.20;1.03;;;;;;;;;;5064825;28;20210;-75
2024/01/13 12:50:43;;;;;;;1.87;1.23;;;;;;;;;;5082502;28;20766;-75
2024/01/13 12:53:09;;;;;;;2.23;1.20;;;;;;;;;;5065868;28;20202;-74
2024/01/13 12:55:35;;;;;;;1.30;1.10;;;;;;;;;;5067711;28;20570;-73
2024/01/13 12:58:01;;;;;;;2.33;1.27;;;;;;;;;;5066096;28;20181;-73
2024/01/13 13:00:29;;;;;;;1.90;1.20;;;;;;;;;;5063071;28;20220;-74
2024/01/13 13:02:58;;;;;;;4.13;1.30;;;;;;;;;;5083018;28;20205;-75
2024/01/13 13:05:24;;;;;;;1.70;1.00;;;;;;;;;;5064699;28;20281;-74
2024/01/13 13:07:50;;;;;;;1.53;1.30;;;;;;;;;;5067397;28;20206;-75
2024/01/13 13:10:18;;;;;;;2.70;1.40;;;;;;;;;;5080147;28;20715;-73
2024/01/13 13:12:46;;;;;;;1.10;1.00;;;;;;;;;;5064678;28;20171;-74
2024/01/13 13:15:12;;;;;;;1.70;1.20;;;;;;;;;;5067166;28;20212;-74
2024/01/13 13:17:39;;;;;;;1.53;1.10;;;;;;;;;;5066987;28;20224;-73
2024/01/13 13:20:08;;;;;;;2.90;1.13;;;;;;;;;;5073792;28;20838;-76
2024/01/13 13:22:37;;;;;;;2.57;1.23;;;;;;;;;;5059308;28;20739;-74
2024/01/13 13:25:05;;;;;;;1.87;1.20;;;;;;;;;;5077003;28;20169;-74
2024/01/13 13:27:31;;;;;;;1.07;0.97;;;;;;;;;;5082402;28;20209;-74
2024/01/13 13:29:58;;;;;;;1.40;0.90;;;;;;;;;;5077334;28;20203;-76
2024/01/13 13:32:24;;;;;;;2.10;1.23;;;;;;;;;;5082301;28;20209;-76
2024/01/13 13:34:50;;;;;;;1.20;1.10;;;;;;;;;;5073784;28;20198;-75
2024/01/13 13:37:16;;;;;;;3.50;1.63;;;;;;;;;;5073376;28;20185;-74
2024/01/13 13:39:42;;;;;;;1.90;1.47;;;;;;;;;;5075404;28;20905;-75
2024/01/13 13:42:09;;;;;;;1.90;1.20;;;;;;;;;;5078396;28;20201;-75
2024/01/13 13:44:37;;;;;;;2.87;1.27;;;;;;;;;;5077689;28;20217;-73
2024/01/13 13:47:03;;;;;;;2.03;1.50;;;;;;;;;;5080595;28;20219;-74
2024/01/13 13:49:29;;;;;;;2.23;1.43;;;;;;;;;;5063165;28;20753;-75
2024/01/13 13:51:57;;;;;;;1.80;1.63;;;;;;;;;;5065478;28;20193;-74
2024/01/13 13:54:23;;;;;;;2.03;1.53;;;;;;;;;;5057654;28;20289;-75
2024/01/13 13:56:49;;;;;;;1.83;1.63;;;;;;;;;;5076750;28;20306;-76
2024/01/13 13:59:15;;;;;;;1.93;1.47;;;;;;;;;;5074043;28;20313;-75
2024/01/13 14:01:44;;;;;;;4.83;1.63;;;;;;;;;;5077281;28;20714;-73
2024/01/13 14:04:10;;;;;;;2.13;1.27;;;;;;;;;;5056672;28;20194;-75
2024/01/13 14:06:37;;;;;;;3.00;1.50;;;;;;;;;;5075396;28;20254;-75
2024/01/13 14:09:03;;;;;;;1.60;1.43;;;;;;;;;;5075828;28;20275;-74
2024/01/13 14:11:29;;;;;;;3.00;1.90;;;;;;;;;;5075559;28;20205;-77
2024/01/13 14:13:55;;;;;;;2.53;1.67;;;;;;;;;;5076849;28;20233;-76
2024/01/13 14:16:21;;;;;;;2.30;2.03;;;;;;;;;;5076586;28;20188;-76
2024/01/13 14:18:47;;;;;;;3.70;2.30;;;;;;;;;;5072205;28;20747;-75
2024/01/13 14:21:16;;;;;;;2.63;2.00;;;;;;;;;;5075943;28;20206;-74
2024/01/13 14:23:43;;;;;;;4.13;2.57;;;;;;;;;;5079532;28;20202;-74
2024/01/13 14:26:10;;;;;;;2.33;1.80;;;;;;;;;;5077460;28;20220;-75
2024/01/13 14:28:36;;;;;;;3.27;2.30;;;;;;;;;;5078529;28;20225;-76
2024/01/13 14:31:04;;;;;;;2.20;2.00;;;;;;;;;;5059987;28;20268;-75
2024/01/13 14:33:30;;;;;;;3.33;2.17;;;;;;;;;;5077614;28;20225;-75
2024/01/13 14:35:56;;;;;;;3.67;2.13;;;;;;;;;;5075322;28;20289;-75
2024/01/13 14:38:23;;;;;;;3.60;2.43;;;;;;;;;;5075636;28;20604;-75